Terminal Aerodrome Forecast
Issued by NWS Denver/Boulder, CO

Home | Current Version | Previous Version | Text Only | Print | Product List | Glossary On
Versions: 1 2 3 4 5 6 7 8 9 10 11 12 13 14 15 16 17 18 19 20 21 22 23 24 25 26 27 28 29 30 31 32 33 34 35 36 37 38 39 40
000
FTUS45 KBOU 231228 AAA
TAFDEN
TAF AMD
KDEN 231228Z 2312/2418 23004KT 4SM BR VCFG SCT010 SCT030
     FM231800 06008KT P6SM SCT010 BKN090
     FM232200 02006KT P6SM VCSH SCT010 BKN030
     FM240100 35009KT 5SM -SHSN BR SCT010 OVC030
     FM240500 32011KT 2SM -SHSN BR SCT005 OVC010
      TEMPO 2406/2409 1SM -SHSN BR BKN005
     FM240900 22006KT P6SM SCT005 BKN030
     FM241200 27006KT P6SM SCT020 BKN120
     FM241600 27012KT P6SM FEW120=

USA.gov is the U.S. government's official web portal to all federal, state and local government web resources and services.